Time;durP1;ratioP1;P1;durP2;ratioP2;P2;SDS_P1;SDS_P2;PMS_P1;PMS_P2;Temp;Humidity;BMP_temperature;BMP_pressure;BME280_temperature;BME280_humidity;BME280_pressure;Samples;Min_cycle;Max_cycle;Signal;HPM_P1;HPM_P2
2021/06/07 00:01:39;;;;;;;3.53;2.03;;;16.00;78.60;;;;;;4934555;29;20098;-75
2021/06/07 00:04:24;;;;;;;2.55;1.55;;;16.00;78.60;;;;;;4934928;29;20099;-76
2021/06/07 00:06:50;;;;;;;4.40;1.90;;;16.00;78.80;;;;;;4934853;29;20036;-76
2021/06/07 00:09:18;;;;;;;5.30;2.20;;;15.90;78.90;;;;;;4934500;29;20380;-75
2021/06/07 00:11:49;;;;;;;3.45;2.10;;;15.90;79.00;;;;;;4933949;29;20055;-75
2021/06/07 00:14:17;;;;;;;2.83;2.03;;;15.80;79.00;;;;;;4917329;29;20039;-75
2021/06/07 00:16:43;;;;;;;3.10;1.85;;;15.80;79.00;;;;;;4934154;29;20031;-76
2021/06/07 00:19:14;;;;;;;4.82;2.10;;;15.90;79.30;;;;;;4917560;29;20066;-76
2021/06/07 00:21:40;;;;;;;4.25;2.53;;;15.80;79.30;;;;;;4934098;29;20027;-76
2021/06/07 00:24:07;;;;;;;4.22;2.22;;;15.80;79.30;;;;;;4934465;29;20032;-76
2021/06/07 00:26:34;;;;;;;2.85;1.88;;;15.70;79.10;;;;;;4933674;29;20059;-76
2021/06/07 00:28:59;;;;;;;4.72;2.63;;;15.70;79.20;;;;;;4917499;29;20136;-76
2021/06/07 00:31:25;;;;;;;2.83;1.85;;;15.70;79.60;;;;;;4936757;29;20027;-74
2021/06/07 00:33:52;;;;;;;3.80;1.85;;;15.70;79.40;;;;;;4937961;29;20114;-75
2021/06/07 00:36:22;;;;;;;4.97;1.70;;;15.70;79.30;;;;;;4938504;29;20039;-76
2021/06/07 00:38:49;;;;;;;4.07;2.03;;;15.70;79.30;;;;;;4920741;29;20796;-75
2021/06/07 00:41:15;;;;;;;4.15;2.00;;;15.70;79.40;;;;;;4938443;29;20464;-75
2021/06/07 00:43:41;;;;;;;3.03;2.03;;;15.70;79.50;;;;;;4937838;29;20119;-75
2021/06/07 00:46:08;;;;;;;4.18;2.10;;;15.70;79.30;;;;;;4957662;29;20489;-75
2021/06/07 00:48:34;;;;;;;6.63;2.50;;;15.60;79.30;;;;;;4957105;29;20114;-76
2021/06/07 00:51:06;;;;;;;4.47;2.00;;;15.60;79.40;;;;;;4957691;29;20110;-76
2021/06/07 00:53:32;;;;;;;4.03;1.92;;;15.70;79.50;;;;;;4956542;29;20029;-75
2021/06/07 00:56:01;;;;;;;3.95;1.88;;;15.60;79.40;;;;;;4957379;29;20031;-76
2021/06/07 00:58:35;;;;;;;2.85;1.75;;;15.60;79.50;;;;;;4956997;29;20027;-76
2021/06/07 01:01:04;;;;;;;1.90;1.63;;;15.60;79.50;;;;;;4957269;29;20031;-75
2021/06/07 01:03:30;;;;;;;3.72;1.63;;;15.60;79.50;;;;;;4939816;29;20031;-75
2021/06/07 01:05:56;;;;;;;4.30;1.98;;;15.60;79.60;;;;;;4939852;29;20019;-75
2021/06/07 01:08:23;;;;;;;3.47;1.88;;;15.60;79.50;;;;;;4957147;29;20023;-75
2021/06/07 01:10:50;;;;;;;3.10;2.15;;;15.50;79.40;;;;;;4939162;29;20019;-75
2021/06/07 01:13:17;;;;;;;5.60;2.00;;;15.50;79.40;;;;;;4957043;29;20027;-75
2021/06/07 01:15:44;;;;;;;3.92;1.92;;;15.50;79.40;;;;;;4939079;29;20023;-76
2021/06/07 01:18:11;;;;;;;3.03;1.98;;;15.50;79.30;;;;;;4957083;29;20079;-75
2021/06/07 01:20:37;;;;;;;3.95;1.75;;;15.50;79.40;;;;;;4956061;29;20050;-76
2021/06/07 01:23:03;;;;;;;4.22;1.80;;;15.50;79.30;;;;;;4956866;29;20042;-76
2021/06/07 01:25:35;;;;;;;2.60;1.58;;;15.40;79.40;;;;;;4956893;29;20185;-75
2021/06/07 01:28:02;;;;;;;3.22;1.80;;;15.50;79.40;;;;;;4939854;29;20046;-75
2021/06/07 01:30:34;;;;;;;3.85;1.58;;;15.40;79.30;;;;;;4956761;29;20047;-76
2021/06/07 01:33:01;;;;;;;1.77;1.25;;;15.40;79.20;;;;;;4956523;29;20035;-76
2021/06/07 01:35:27;;;;;;;2.47;1.30;;;15.30;79.10;;;;;;4939248;29;20043;-76
2021/06/07 01:37:54;;;;;;;3.40;1.77;;;15.30;79.10;;;;;;4956027;29;20074;-76
2021/06/07 01:40:23;;;;;;;2.88;1.70;;;15.30;79.10;;;;;;4938966;29;20028;-75
2021/06/07 01:42:49;;;;;;;4.22;1.83;;;15.30;79.00;;;;;;4938214;29;20220;-76
2021/06/07 01:45:18;;;;;;;3.40;1.50;;;15.20;79.10;;;;;;4926852;29;20055;-75
2021/06/07 01:47:45;;;;;;;3.38;1.45;;;15.30;79.20;;;;;;4937066;29;20023;-75
2021/06/07 01:50:12;;;;;;;3.25;1.60;;;15.30;79.30;;;;;;4920646;29;20031;-75
2021/06/07 01:52:43;;;;;;;2.50;1.48;;;15.30;79.30;;;;;;4941270;29;20024;-74
2021/06/07 01:55:21;;;;;;;3.53;1.67;;;15.30;79.20;;;;;;4942245;29;20098;-75
2021/06/07 01:57:48;;;;;;;1.35;1.25;;;15.30;78.80;;;;;;4919568;29;20023;-76
2021/06/07 02:00:21;;;;;;;3.08;1.30;;;15.20;78.70;;;;;;4920023;29;20488;-75
2021/06/07 02:02:47;;;;;;;4.60;1.42;;;15.30;78.60;;;;;;4919332;29;20087;-75
2021/06/07 02:05:18;;;;;;;2.58;1.48;;;15.30;78.60;;;;;;4935789;29;20027;-75
2021/06/07 02:07:56;;;;;;;1.42;1.30;;;15.30;78.60;;;;;;4935979;29;20417;-75
2021/06/07 02:10:28;;;;;;;3.20;1.65;;;15.20;78.50;;;;;;4935656;29;20539;-76
2021/06/07 02:12:56;;;;;;;2.55;1.23;;;15.20;78.50;;;;;;4936344;29;20079;-75
2021/06/07 02:15:22;;;;;;;1.67;1.13;;;15.20;78.30;;;;;;4936381;29;20084;-75
2021/06/07 02:17:48;;;;;;;3.05;1.40;;;15.20;78.00;;;;;;4919032;29;20496;-76
2021/06/07 02:20:17;;;;;;;2.70;1.40;;;15.20;77.90;;;;;;4919680;29;20023;-75
2021/06/07 02:22:45;;;;;;;1.85;1.38;;;15.20;77.90;;;;;;4934817;29;20031;-75
2021/06/07 02:25:16;;;;;;;2.88;1.35;;;15.10;77.70;;;;;;4936595;29;20035;-75
2021/06/07 02:27:42;;;;;;;2.70;1.30;;;15.10;77.70;;;;;;4935788;29;20028;-77
2021/06/07 02:30:11;;;;;;;3.45;1.42;;;15.10;77.80;;;;;;4951485;29;20119;-75
2021/06/07 02:32:38;;;;;;;1.40;1.17;;;15.10;77.80;;;;;;4954439;29;20031;-76
2021/06/07 02:35:06;;;;;;;1.90;1.58;;;15.10;77.70;;;;;;4954243;29;20403;-75
2021/06/07 02:37:32;;;;;;;2.40;1.50;;;15.10;77.80;;;;;;4955708;29;20363;-74
2021/06/07 02:39:58;;;;;;;4.03;1.40;;;15.10;77.90;;;;;;4954805;29;20023;-76
2021/06/07 02:42:23;;;;;;;1.92;1.27;;;15.00;77.90;;;;;;4937815;29;20365;-75
2021/06/07 02:44:49;;;;;;;3.72;1.58;;;15.00;77.90;;;;;;4963349;28;20058;-75
2021/06/07 02:47:16;;;;;;;2.90;1.60;;;15.00;78.00;;;;;;4974709;28;20022;-76
2021/06/07 02:49:41;;;;;;;1.60;1.38;;;15.00;78.30;;;;;;4974021;28;20078;-77
2021/06/07 02:52:07;;;;;;;2.08;1.40;;;15.00;78.40;;;;;;4972830;28;20118;-75
2021/06/07 02:54:33;;;;;;;2.75;1.67;;;15.00;78.30;;;;;;4956182;28;20063;-75
2021/06/07 02:56:59;;;;;;;2.85;1.40;;;14.90;78.30;;;;;;4956264;28;20094;-75
2021/06/07 02:59:24;;;;;;;3.10;1.67;;;15.00;78.50;;;;;;4957058;28;20079;-76
2021/06/07 03:01:50;;;;;;;3.50;1.40;;;15.00;78.60;;;;;;4973767;28;20103;-76
2021/06/07 03:04:16;;;;;;;3.17;1.83;;;14.90;78.50;;;;;;4973291;28;20118;-75
2021/06/07 03:06:41;;;;;;;3.25;1.60;;;14.90;78.60;;;;;;4974117;28;20063;-76
2021/06/07 03:09:07;;;;;;;4.32;1.90;;;14.90;78.90;;;;;;4956992;28;20379;-75
2021/06/07 03:11:33;;;;;;;3.45;2.05;;;14.90;79.00;;;;;;4956783;28;20106;-75
2021/06/07 03:13:58;;;;;;;3.20;1.80;;;14.90;79.10;;;;;;4971998;28;20428;-75
2021/06/07 03:16:24;;;;;;;3.85;2.17;;;14.90;79.10;;;;;;4956831;28;20391;-75
2021/06/07 03:18:50;;;;;;;2.42;1.70;;;14.90;79.00;;;;;;4973786;28;20031;-75
2021/06/07 03:21:15;;;;;;;3.00;1.60;;;14.80;78.90;;;;;;4956759;28;20026;-75
2021/06/07 03:23:42;;;;;;;3.92;1.90;;;14.90;79.10;;;;;;4955923;28;20110;-75
2021/06/07 03:26:08;;;;;;;3.75;1.90;;;14.90;79.30;;;;;;4973938;28;20031;-75
2021/06/07 03:28:34;;;;;;;2.85;1.80;;;14.90;79.40;;;;;;4972489;28;20023;-75
2021/06/07 03:31:00;;;;;;;5.05;1.80;;;14.90;79.40;;;;;;4973349;28;20173;-75
2021/06/07 03:33:27;;;;;;;3.42;1.50;;;14.80;79.20;;;;;;4956356;28;20038;-76
2021/06/07 03:35:55;;;;;;;4.22;1.75;;;14.80;79.40;;;;;;4973059;28;20034;-75
2021/06/07 03:38:21;;;;;;;3.53;1.58;;;14.80;79.50;;;;;;4956231;28;20033;-75
2021/06/07 03:40:52;;;;;;;4.68;1.75;;;14.80;79.50;;;;;;4955222;28;20030;-75
2021/06/07 03:43:18;;;;;;;3.90;1.60;;;14.80;79.50;;;;;;4963289;28;20356;-75
2021/06/07 03:45:44;;;;;;;6.60;1.75;;;14.80;79.50;;;;;;4963767;28;20285;-75
2021/06/07 03:48:10;;;;;;;2.35;1.60;;;14.80;79.60;;;;;;4964830;28;20030;-75
2021/06/07 03:50:37;;;;;;;2.78;1.60;;;14.80;79.80;;;;;;4963637;28;20046;-75
2021/06/07 03:53:04;;;;;;;5.78;2.25;;;14.80;79.80;;;;;;4952943;28;20030;-75
2021/06/07 03:55:30;;;;;;;3.45;1.67;;;14.80;79.80;;;;;;4961094;28;20035;-74
2021/06/07 03:57:57;;;;;;;3.13;1.60;;;14.80;79.70;;;;;;4969453;28;20114;-75
2021/06/07 04:00:29;;;;;;;4.53;1.80;;;14.80;79.70;;;;;;4970531;28;20463;-75
2021/06/07 04:02:56;;;;;;;3.25;1.60;;;14.80;79.50;;;;;;4955323;28;20015;-75
2021/06/07 04:05:22;;;;;;;2.85;1.63;;;14.80;80.10;;;;;;4973124;28;20110;-75
2021/06/07 04:07:49;;;;;;;3.22;1.38;;;14.80;79.50;;;;;;4955079;28;20114;-75
2021/06/07 04:10:18;;;;;;;2.58;1.42;;;14.90;79.50;;;;;;4973132;28;20022;-75
2021/06/07 04:12:46;;;;;;;3.35;1.60;;;14.90;79.40;;;;;;4972685;28;20086;-75
2021/06/07 04:15:14;;;;;;;2.15;1.35;;;15.00;79.30;;;;;;4955694;28;20095;-75
2021/06/07 04:17:40;;;;;;;7.13;4.43;;;15.00;79.10;;;;;;4973069;28;20031;-75
2021/06/07 04:20:10;;;;;;;4.22;2.42;;;15.10;79.00;;;;;;4972886;28;20027;-75
2021/06/07 04:22:36;;;;;;;3.72;1.88;;;15.00;79.00;;;;;;4973876;28;20098;-75
2021/06/07 04:25:04;;;;;;;4.68;2.25;;;15.00;78.90;;;;;;4972768;28;20039;-75
2021/06/07 04:27:30;;;;;;;4.13;1.50;;;15.10;79.20;;;;;;4973286;28;20451;-75
2021/06/07 04:29:55;;;;;;;3.47;1.67;;;15.00;79.10;;;;;;4954785;28;20027;-75
2021/06/07 04:32:21;;;;;;;2.58;1.60;;;15.00;79.10;;;;;;4972764;28;20027;-74
2021/06/07 04:34:47;;;;;;;3.35;1.50;;;15.00;79.10;;;;;;4972293;28;20049;-75
2021/06/07 04:37:13;;;;;;;2.53;1.60;;;15.00;79.20;;;;;;4972758;28;20046;-75
2021/06/07 04:39:39;;;;;;;3.25;1.73;;;15.00;79.30;;;;;;4955558;28;20050;-75
2021/06/07 04:42:06;;;;;;;4.95;1.55;;;15.00;79.30;;;;;;4972670;28;20463;-78
2021/06/07 04:44:32;;;;;;;2.75;1.33;;;15.00;79.30;;;;;;4948749;29;20058;-76
2021/06/07 04:46:58;;;;;;;2.65;1.40;;;15.00;79.30;;;;;;4934195;29;20071;-77
2021/06/07 04:49:24;;;;;;;2.70;1.85;;;15.00;79.40;;;;;;4967158;29;20031;-81
2021/06/07 04:51:50;;;;;;;3.78;1.63;;;15.00;79.50;;;;;;4949619;29;20031;-78
2021/06/07 04:54:15;;;;;;;3.17;1.40;;;15.00;79.60;;;;;;4952364;29;20030;-79
2021/06/07 04:56:41;;;;;;;2.40;1.50;;;15.10;79.60;;;;;;4951800;29;20429;-83
2021/06/07 04:59:07;;;;;;;3.47;1.77;;;15.00;79.60;;;;;;4951641;29;20542;-83
2021/06/07 05:01:32;;;;;;;3.55;1.70;;;15.00;79.80;;;;;;4951915;29;20111;-83
2021/06/07 05:03:58;;;;;;;3.22;1.75;;;15.00;79.70;;;;;;4933387;29;20059;-81
2021/06/07 05:06:24;;;;;;;2.85;1.58;;;15.00;79.80;;;;;;4951670;29;20478;-83
2021/06/07 05:08:50;;;;;;;3.97;1.52;;;15.00;79.90;;;;;;4933678;29;20066;-78
2021/06/07 05:11:16;;;;;;;2.95;1.58;;;15.10;80.00;;;;;;4934333;29;20024;-75
2021/06/07 05:13:41;;;;;;;2.47;1.65;;;15.10;80.00;;;;;;4939245;29;20444;-74
2021/06/07 05:16:07;;;;;;;3.00;1.35;;;15.10;79.90;;;;;;4922115;28;20035;-75
2021/06/07 05:18:34;;;;;;;3.35;1.73;;;15.10;80.00;;;;;;4930909;29;20019;-75
2021/06/07 05:21:00;;;;;;;2.40;1.35;;;15.10;80.00;;;;;;4938839;29;20087;-75
2021/06/07 05:23:26;;;;;;;2.65;1.40;;;15.10;80.00;;;;;;4956862;29;20027;-73
2021/06/07 05:25:52;;;;;;;3.05;1.40;;;15.10;80.00;;;;;;4956464;29;20087;-75
2021/06/07 05:28:19;;;;;;;4.43;1.50;;;15.20;80.00;;;;;;4956559;29;20464;-75
2021/06/07 05:30:48;;;;;;;2.40;1.33;;;15.20;80.00;;;;;;4939448;29;20387;-75
2021/06/07 05:33:13;;;;;;;2.03;1.15;;;15.20;79.90;;;;;;4956096;29;20027;-74
2021/06/07 05:35:42;;;;;;;3.47;1.13;;;15.30;79.70;;;;;;4956275;29;20035;-75
2021/06/07 05:38:10;;;;;;;5.10;1.98;;;15.30;79.70;;;;;;4955699;29;20432;-74
2021/06/07 05:40:37;;;;;;;2.15;1.30;;;15.30;79.60;;;;;;4956670;29;20452;-74
2021/06/07 05:43:03;;;;;;;1.70;1.20;;;15.30;79.50;;;;;;4938649;29;20155;-75
2021/06/07 05:45:29;;;;;;;1.50;0.95;;;15.40;79.30;;;;;;4938929;29;20051;-75
2021/06/07 05:47:57;;;;;;;2.63;0.98;;;15.40;79.20;;;;;;4938462;29;20023;-75
2021/06/07 05:50:25;;;;;;;2.55;1.20;;;15.40;79.20;;;;;;4938984;29;20023;-75
2021/06/07 05:52:51;;;;;;;3.80;1.50;;;15.50;79.20;;;;;;4955976;29;20042;-74
2021/06/07 05:55:19;;;;;;;2.83;1.40;;;15.50;79.20;;;;;;4938478;29;20035;-74
2021/06/07 05:57:46;;;;;;;3.40;1.20;;;15.50;79.30;;;;;;4956658;29;20046;-75
2021/06/07 06:00:15;;;;;;;1.33;0.88;;;15.50;79.00;;;;;;4956117;29;20136;-74
2021/06/07 06:02:41;;;;;;;1.20;0.98;;;15.60;78.90;;;;;;4939349;29;20058;-75
2021/06/07 06:05:07;;;;;;;2.25;0.98;;;15.60;79.00;;;;;;4955523;29;20148;-74
2021/06/07 06:07:33;;;;;;;3.13;1.23;;;15.60;78.90;;;;;;4938988;29;20078;-75
2021/06/07 06:09:59;;;;;;;1.88;0.90;;;15.60;78.40;;;;;;4955304;29;20027;-75
2021/06/07 06:12:26;;;;;;;3.25;1.10;;;15.70;78.20;;;;;;4938547;29;20027;-75
2021/06/07 06:14:51;;;;;;;1.23;0.90;;;15.70;78.00;;;;;;4938738;29;20058;-74
2021/06/07 06:17:17;;;;;;;2.00;0.80;;;15.70;77.80;;;;;;4938090;29;20054;-74
2021/06/07 06:19:43;;;;;;;1.55;0.80;;;15.80;78.00;;;;;;4956080;29;20031;-75
2021/06/07 06:22:08;;;;;;;1.60;0.80;;;15.80;77.70;;;;;;4937952;29;20128;-75
2021/06/07 06:24:34;;;;;;;1.15;0.75;;;15.80;77.40;;;;;;4955629;29;20031;-75
2021/06/07 06:27:00;;;;;;;3.15;1.55;;;15.80;77.30;;;;;;4938048;29;20027;-75
2021/06/07 06:29:26;;;;;;;1.33;1.02;;;15.90;77.20;;;;;;4938407;29;20524;-75
2021/06/07 06:31:52;;;;;;;1.17;0.90;;;15.90;77.20;;;;;;4955349;29;20031;-75
2021/06/07 06:34:18;;;;;;;1.63;0.90;;;16.00;77.10;;;;;;4937823;29;20027;-74
2021/06/07 06:36:43;;;;;;;0.95;0.80;;;16.00;77.20;;;;;;4938302;29;20115;-74
2021/06/07 06:39:09;;;;;;;1.63;0.90;;;16.00;77.10;;;;;;4955036;29;20388;-75
2021/06/07 06:41:36;;;;;;;2.03;0.98;;;16.10;76.90;;;;;;4955157;29;20027;-74
2021/06/07 06:44:02;;;;;;;1.50;0.88;;;16.10;77.00;;;;;;4939816;28;20030;-75
2021/06/07 06:46:27;;;;;;;0.80;0.55;;;16.10;76.80;;;;;;4974421;28;20053;-75
2021/06/07 06:48:53;;;;;;;3.35;0.90;;;16.10;76.50;;;;;;4957253;28;20329;-74
2021/06/07 06:51:19;;;;;;;0.98;0.80;;;16.20;76.40;;;;;;4974275;28;20157;-74
2021/06/07 06:53:45;;;;;;;1.15;0.70;;;16.20;76.40;;;;;;4957120;28;20114;-74
2021/06/07 06:56:11;;;;;;;1.92;0.75;;;16.20;76.20;;;;;;4973998;28;20407;-74
2021/06/07 06:58:37;;;;;;;2.28;1.00;;;16.30;75.30;;;;;;4957237;28;20019;-74
2021/06/07 07:01:03;;;;;;;1.90;1.10;;;16.40;73.60;;;;;;4973816;28;20550;-75
2021/06/07 07:03:29;;;;;;;1.40;0.73;;;16.40;72.90;;;;;;4957095;28;20023;-74
2021/06/07 07:05:55;;;;;;;1.52;0.85;;;16.40;72.20;;;;;;4974315;28;20121;-74
2021/06/07 07:08:21;;;;;;;0.93;0.70;;;16.50;71.70;;;;;;4973671;28;20035;-74
2021/06/07 07:10:48;;;;;;;1.58;0.82;;;16.50;71.20;;;;;;4974262;28;20062;-75
2021/06/07 07:13:14;;;;;;;1.40;1.10;;;16.50;70.80;;;;;;4973679;28;20111;-75
2021/06/07 07:15:40;;;;;;;0.90;0.85;;;16.60;70.70;;;;;;4956724;28;20529;-75
2021/06/07 07:18:07;;;;;;;3.30;1.02;;;16.60;70.80;;;;;;4956043;28;20023;-75
2021/06/07 07:20:34;;;;;;;4.07;1.10;;;16.70;70.90;;;;;;4956685;28;20030;-73
2021/06/07 07:23:00;;;;;;;1.60;0.90;;;16.70;70.80;;;;;;4956022;28;20023;-76
2021/06/07 07:25:26;;;;;;;2.17;1.10;;;16.70;70.80;;;;;;4974072;28;20051;-74
2021/06/07 07:27:52;;;;;;;1.98;1.00;;;16.80;70.90;;;;;;4973981;28;20034;-74
2021/06/07 07:30:20;;;;;;;0.70;0.70;;;16.80;70.70;;;;;;4955910;28;20019;-74
2021/06/07 07:32:49;;;;;;;1.58;0.73;;;16.80;70.90;;;;;;4956383;28;20063;-75
2021/06/07 07:35:15;;;;;;;0.88;0.80;;;16.90;71.10;;;;;;4955825;28;20031;-75
2021/06/07 07:37:42;;;;;;;1.55;1.10;;;16.90;70.80;;;;;;4973747;28;20026;-74
2021/06/07 07:40:10;;;;;;;1.60;1.00;;;17.00;69.60;;;;;;4972806;28;20105;-75
2021/06/07 07:42:36;;;;;;;1.25;0.73;;;17.10;69.10;;;;;;4973474;28;20022;-74
2021/06/07 07:45:07;;;;;;;1.38;1.02;;;17.20;68.30;;;;;;4975652;28;20065;-75
2021/06/07 07:47:34;;;;;;;1.73;0.90;;;17.20;67.10;;;;;;4978276;28;20081;-75
2021/06/07 07:49:59;;;;;;;2.75;0.93;;;17.30;67.60;;;;;;4974124;28;20023;-75
2021/06/07 07:52:25;;;;;;;1.85;1.10;;;17.30;67.40;;;;;;4973333;28;20106;-75
2021/06/07 07:54:55;;;;;;;2.35;0.95;;;17.40;67.40;;;;;;4973522;28;20117;-74
2021/06/07 07:57:21;;;;;;;2.08;0.98;;;17.40;67.40;;;;;;4973030;28;20786;-75
2021/06/07 07:59:48;;;;;;;2.92;1.05;;;17.40;67.00;;;;;;4973196;28;20034;-75
2021/06/07 08:02:13;;;;;;;1.40;1.00;;;17.50;68.00;;;;;;4972787;28;20047;-74
2021/06/07 08:04:41;;;;;;;1.10;1.00;;;17.50;67.50;;;;;;4973526;28;20070;-74
2021/06/07 08:07:07;;;;;;;0.77;0.77;;;17.50;65.90;;;;;;4955440;28;20069;-75
2021/06/07 08:09:35;;;;;;;1.73;1.02;;;17.60;66.40;;;;;;4973220;28;20506;-75
2021/06/07 08:12:02;;;;;;;1.15;1.05;;;17.60;65.90;;;;;;4955925;28;20037;-75
2021/06/07 08:14:28;;;;;;;2.63;1.10;;;17.70;65.90;;;;;;4955668;28;20059;-75
2021/06/07 08:16:54;;;;;;;2.65;0.90;;;17.80;64.80;;;;;;4955921;28;20129;-74
2021/06/07 08:19:21;;;;;;;3.42;1.20;;;17.80;64.80;;;;;;4972630;28;20472;-74
2021/06/07 08:21:47;;;;;;;3.60;1.63;;;17.90;65.10;;;;;;4972949;28;20023;-75
2021/06/07 08:24:13;;;;;;;1.15;0.95;;;17.90;64.90;;;;;;4972583;28;20344;-74
2021/06/07 08:26:39;;;;;;;2.75;1.20;;;17.90;65.00;;;;;;4972869;28;20460;-75
2021/06/07 08:29:04;;;;;;;3.97;1.10;;;17.90;65.40;;;;;;4954690;28;20019;-75
2021/06/07 08:31:30;;;;;;;1.25;0.90;;;17.90;65.60;;;;;;4955562;28;20029;-75
2021/06/07 08:33:56;;;;;;;0.82;0.82;;;18.00;65.80;;;;;;4955629;28;20046;-74
2021/06/07 08:36:22;;;;;;;3.63;1.27;;;18.00;65.70;;;;;;4954969;28;20047;-75
2021/06/07 08:38:48;;;;;;;3.20;1.23;;;18.10;64.90;;;;;;4972987;28;20147;-74
2021/06/07 08:41:13;;;;;;;1.10;0.98;;;18.10;64.90;;;;;;4972414;28;20033;-75
2021/06/07 08:43:39;;;;;;;2.28;1.15;;;18.20;65.00;;;;;;4973050;28;20408;-75
2021/06/07 08:46:05;;;;;;;2.85;1.20;;;18.20;65.00;;;;;;4955497;28;20055;-76
2021/06/07 08:48:31;;;;;;;2.00;1.08;;;18.20;64.00;;;;;;4936191;29;20376;-75
2021/06/07 08:51:01;;;;;;;2.67;1.30;;;18.30;64.40;;;;;;4953117;28;20450;-76
2021/06/07 08:53:27;;;;;;;1.75;1.00;;;18.30;64.80;;;;;;4956157;29;20538;-75
2021/06/07 08:55:53;;;;;;;3.05;1.20;;;18.30;64.10;;;;;;4957105;29;20035;-75
2021/06/07 08:58:18;;;;;;;1.38;1.00;;;18.30;63.40;;;;;;4939376;29;20119;-75
2021/06/07 09:00:44;;;;;;;3.10;1.25;;;18.40;63.20;;;;;;4957031;29;20033;-75
2021/06/07 09:03:14;;;;;;;1.48;0.90;;;18.50;63.30;;;;;;4939268;29;20023;-75
2021/06/07 09:05:40;;;;;;;3.25;1.00;;;18.50;63.30;;;;;;4939845;29;20380;-75
2021/06/07 09:08:09;;;;;;;3.15;1.42;;;18.50;63.40;;;;;;4956917;29;20472;-76
2021/06/07 09:10:38;;;;;;;1.85;0.95;;;18.60;63.30;;;;;;4956712;29;20027;-75
2021/06/07 09:13:07;;;;;;;2.22;1.10;;;18.60;62.80;;;;;;4939759;29;20024;-75
2021/06/07 09:15:35;;;;;;;2.15;1.10;;;18.70;62.30;;;;;;4956829;29;20051;-74
2021/06/07 09:18:03;;;;;;;2.05;1.13;;;18.80;63.30;;;;;;4939681;29;20063;-75
2021/06/07 09:20:29;;;;;;;3.35;1.17;;;18.80;62.80;;;;;;4956315;29;20158;-74
2021/06/07 09:23:06;;;;;;;2.88;0.90;;;18.80;63.10;;;;;;4939551;29;20031;-76
2021/06/07 09:25:35;;;;;;;1.58;0.85;;;18.80;63.20;;;;;;4956286;29;20024;-75
2021/06/07 09:28:05;;;;;;;2.38;1.10;;;18.90;63.40;;;;;;4939628;29;20042;-74
2021/06/07 09:30:43;;;;;;;2.33;0.83;;;18.80;62.40;;;;;;4956318;29;20019;-75
2021/06/07 09:33:23;;;;;;;2.92;1.10;;;18.90;61.40;;;;;;4939005;29;20034;-75
2021/06/07 09:36:20;;;;;;;1.70;0.82;;;19.00;60.70;;;;;;4956505;29;20039;-75
2021/06/07 09:39:05;;;;;;;1.35;0.80;;;19.00;60.60;;;;;;4939380;29;20078;-74
2021/06/07 09:41:48;;;;;;;4.57;1.38;;;19.10;60.40;;;;;;4938284;29;20127;-74
2021/06/07 09:44:23;;;;;;;1.05;0.80;;;19.20;60.20;;;;;;4940661;28;20023;-74
2021/06/07 09:46:50;;;;;;;2.53;1.00;;;19.30;59.70;;;;;;4975705;28;20027;-74
2021/06/07 09:49:20;;;;;;;1.35;0.80;;;19.30;60.20;;;;;;4957794;28;20496;-74
2021/06/07 09:51:58;;;;;;;2.05;0.70;;;19.30;60.20;;;;;;4958217;28;20106;-75
2021/06/07 09:54:25;;;;;;;2.70;0.82;;;19.40;60.10;;;;;;4957433;28;20110;-75
2021/06/07 09:56:54;;;;;;;1.38;0.70;;;19.30;60.10;;;;;;4975094;28;20386;-75
2021/06/07 09:59:29;;;;;;;2.22;1.13;;;19.40;60.30;;;;;;4975027;28;20023;-75
2021/06/07 10:01:57;;;;;;;4.55;2.10;;;19.40;60.40;;;;;;4958385;28;20030;-74
2021/06/07 10:04:42;;;;;;;1.92;1.30;;;19.50;60.80;;;;;;4956625;28;20023;-75
2021/06/07 10:07:08;;;;;;;2.83;1.15;;;19.50;61.20;;;;;;4975031;28;20031;-76
2021/06/07 10:09:34;;;;;;;2.63;0.93;;;19.60;61.20;;;;;;4974686;28;20034;-74
2021/06/07 10:11:59;;;;;;;2.67;1.45;;;19.70;60.70;;;;;;4958013;28;20459;-75
2021/06/07 10:14:25;;;;;;;0.88;0.70;;;19.80;60.20;;;;;;4974507;28;20151;-74
2021/06/07 10:16:57;;;;;;;5.20;1.10;;;19.80;60.10;;;;;;4957704;28;20026;-74
2021/06/07 10:21:59;;;;;;;3.47;1.10;;;19.90;57.70;;;;;;4975099;28;20026;-76
2021/06/07 10:24:25;;;;;;;1.73;1.00;;;19.90;57.60;;;;;;4973937;28;20027;-75
2021/06/07 10:26:50;;;;;;;2.25;0.90;;;20.00;57.70;;;;;;4957613;28;20101;-75
2021/06/07 10:29:16;;;;;;;1.05;0.77;;;20.00;57.00;;;;;;4956929;28;20022;-76
2021/06/07 10:31:42;;;;;;;2.88;1.10;;;20.10;57.60;;;;;;4957386;28;20034;-75
2021/06/07 10:34:10;;;;;;;1.88;1.23;;;20.10;57.80;;;;;;4957445;28;20424;-75
2021/06/07 10:36:46;;;;;;;1.52;1.10;;;20.10;57.50;;;;;;4973956;28;20035;-75
2021/06/07 10:39:15;;;;;;;2.03;0.90;;;20.10;57.70;;;;;;4957106;28;20050;-75
2021/06/07 10:42:09;;;;;;;2.08;1.08;;;20.20;58.20;;;;;;4974653;28;20062;-74
2021/06/07 10:45:12;;;;;;;1.73;0.90;;;20.30;59.10;;;;;;4973669;28;20053;-74
2021/06/07 10:47:45;;;;;;;1.27;0.93;;;20.40;58.80;;;;;;4956481;28;20030;-75
2021/06/07 10:50:13;;;;;;;2.42;1.00;;;20.50;57.20;;;;;;4974571;28;20045;-75
2021/06/07 10:52:51;;;;;;;2.38;0.95;;;20.50;57.60;;;;;;4973642;28;20027;-75
2021/06/07 10:55:21;;;;;;;5.57;1.33;;;20.50;58.30;;;;;;4973617;28;20121;-75
2021/06/07 10:57:49;;;;;;;1.70;0.82;;;20.60;58.60;;;;;;4974420;28;20239;-74
2021/06/07 11:00:26;;;;;;;1.77;1.17;;;20.80;58.00;;;;;;4973639;28;20030;-75
2021/06/07 11:02:56;;;;;;;2.38;1.25;;;21.00;57.20;;;;;;4974047;28;20023;-74
2021/06/07 11:05:28;;;;;;;2.10;1.02;;;21.10;57.00;;;;;;4973622;28;20158;-76
2021/06/07 11:08:08;;;;;;;1.27;0.90;;;21.20;55.80;;;;;;4956807;28;20114;-75
2021/06/07 11:10:42;;;;;;;1.63;0.93;;;21.30;56.10;;;;;;4973494;28;20034;-75
2021/06/07 11:13:17;;;;;;;3.00;1.10;;;21.40;55.80;;;;;;4973748;28;20512;-75
2021/06/07 11:15:56;;;;;;;1.10;0.77;;;21.50;56.50;;;;;;4973019;28;20106;-74
2021/06/07 11:18:23;;;;;;;3.85;1.40;;;21.70;56.50;;;;;;4972961;28;20391;-74
2021/06/07 11:21:20;;;;;;;1.02;0.77;;;21.90;56.70;;;;;;4956563;28;20463;-75
2021/06/07 11:23:46;;;;;;;1.92;1.23;;;22.10;56.50;;;;;;4944248;28;20039;-75
2021/06/07 11:26:21;;;;;;;1.85;0.82;;;22.30;55.50;;;;;;4956474;28;20038;-75
2021/06/07 11:29:04;;;;;;;1.55;1.10;;;22.40;54.70;;;;;;4956568;28;20415;-75
2021/06/07 11:31:32;;;;;;;3.28;1.08;;;22.50;52.80;;;;;;4973157;28;20468;-74
2021/06/07 11:34:06;;;;;;;2.95;0.88;;;22.60;52.10;;;;;;4973678;28;20031;-75
2021/06/07 11:36:44;;;;;;;1.77;0.93;;;22.70;52.60;;;;;;4955706;28;20034;-74
2021/06/07 11:39:15;;;;;;;1.52;0.90;;;22.80;53.10;;;;;;4956432;28;20027;-75
2021/06/07 11:41:44;;;;;;;2.20;0.95;;;23.00;53.50;;;;;;4972724;28;20027;-75
2021/06/07 11:44:10;;;;;;;3.38;1.48;;;23.20;53.10;;;;;;4971777;28;20022;-75
2021/06/07 11:46:39;;;;;;;2.33;1.27;;;23.30;51.40;;;;;;4953830;29;20027;-75
2021/06/07 11:49:14;;;;;;;1.20;1.00;;;23.40;51.50;;;;;;4954229;29;20106;-75
2021/06/07 11:52:01;;;;;;;0.98;0.80;;;23.50;51.10;;;;;;4953493;29;20027;-75
2021/06/07 11:54:27;;;;;;;1.70;0.75;;;23.60;50.40;;;;;;4952806;29;20043;-75
2021/06/07 11:56:56;;;;;;;1.20;0.90;;;23.70;49.50;;;;;;4936841;29;20490;-75
2021/06/07 11:59:23;;;;;;;1.48;0.95;;;23.80;49.20;;;;;;4953231;29;20033;-76
2021/06/07 12:01:49;;;;;;;0.90;0.80;;;23.90;49.90;;;;;;4954032;29;20102;-74
2021/06/07 12:04:25;;;;;;;0.98;0.70;;;24.00;50.30;;;;;;4954335;29;20106;-75
2021/06/07 12:06:59;;;;;;;1.15;0.85;;;24.20;50.10;;;;;;4954059;29;20027;-74
2021/06/07 12:09:28;;;;;;;1.98;0.80;;;24.30;49.50;;;;;;4952984;29;20072;-75
2021/06/07 12:11:55;;;;;;;3.60;0.70;;;24.40;49.60;;;;;;4953658;29;20035;-75
2021/06/07 12:14:36;;;;;;;3.85;0.93;;;24.40;49.50;;;;;;4935908;29;20122;-78
2021/06/07 12:17:09;;;;;;;1.13;0.82;;;24.60;49.60;;;;;;4953704;29;20457;-74
2021/06/07 12:19:38;;;;;;;2.70;1.35;;;24.60;49.70;;;;;;4936014;29;20114;-75
2021/06/07 12:22:04;;;;;;;3.08;1.08;;;24.80;49.60;;;;;;4936711;29;20060;-74
2021/06/07 12:24:31;;;;;;;2.60;1.65;;;24.90;49.50;;;;;;4953209;29;20106;-75
2021/06/07 12:29:43;;;;;;;1.98;1.00;;;25.10;48.50;;;;;;4953136;29;20521;-75
2021/06/07 12:32:22;;;;;;;1.25;0.85;;;25.20;48.20;;;;;;4953750;29;20024;-74
2021/06/07 12:35:06;;;;;;;2.17;0.77;;;25.30;48.10;;;;;;4953746;29;20074;-74
2021/06/07 12:37:40;;;;;;;2.17;0.77;;;25.40;47.30;;;;;;4953078;29;20034;-76
2021/06/07 12:40:27;;;;;;;2.97;0.90;;;25.40;47.10;;;;;;4936628;29;20049;-75
2021/06/07 12:43:01;;;;;;;1.20;0.55;;;25.50;46.70;;;;;;4936710;29;20031;-75
2021/06/07 12:45:35;;;;;;;1.73;0.80;;;25.60;45.50;;;;;;4964485;28;20074;-76
2021/06/07 12:48:19;;;;;;;0.73;0.60;;;25.70;45.20;;;;;;4955973;28;20027;-75
2021/06/07 12:50:51;;;;;;;1.00;0.70;;;25.90;45.50;;;;;;4954943;28;20388;-75
2021/06/07 12:53:19;;;;;;;1.48;0.77;;;26.00;45.80;;;;;;4973035;28;20464;-75
2021/06/07 12:55:46;;;;;;;2.45;0.80;;;26.00;45.90;;;;;;4954763;28;20061;-74
2021/06/07 12:58:15;;;;;;;0.70;0.65;;;26.10;45.40;;;;;;4972654;28;20027;-75
2021/06/07 13:00:49;;;;;;;1.17;0.88;;;26.20;45.10;;;;;;4954444;28;20042;-75